createdAt,value
2023-01-19T00:01:41.542Z,95873.06
2023-01-19T00:04:08.755Z,95869.16
2023-01-19T00:06:36.141Z,95871.28
2023-01-19T00:09:03.523Z,95877.78
2023-01-19T00:11:30.736Z,95883.50
2023-01-19T00:13:58.945Z,95888.19
2023-01-19T00:16:26.351Z,95883.47
2023-01-19T00:18:53.748Z,95890.03
2023-01-19T00:21:24.728Z,95888.47
2023-01-19T00:23:52.873Z,95891.56
2023-01-19T00:26:22.415Z,95875.09
2023-01-19T00:28:50.736Z,95873.78
2023-01-19T00:31:20.655Z,95874.91
2023-01-19T00:33:52.785Z,95874.50
2023-01-19T00:36:20.357Z,95877.91
2023-01-19T00:38:47.679Z,95879.94
2023-01-19T00:41:14.995Z,95879.47
2023-01-19T00:43:42.233Z,95882.41
2023-01-19T00:46:09.772Z,95872.00
2023-01-19T00:48:37.045Z,95873.59
2023-01-19T00:51:04.431Z,95879.31
2023-01-19T00:53:32.691Z,95887.03
2023-01-19T00:56:02.222Z,95887.03
2023-01-19T00:58:29.513Z,95881.88
2023-01-19T01:01:03.617Z,95885.81
2023-01-19T01:03:31.162Z,95887.13
2023-01-19T01:05:58.904Z,95901.78
2023-01-19T01:08:26.099Z,95897.34
2023-01-19T01:10:53.272Z,95893.50
2023-01-19T01:13:22.402Z,95882.22
2023-01-19T01:15:53.486Z,95890.94
2023-01-19T01:18:21.635Z,95885.22
2023-01-19T01:20:49.039Z,95880.53
2023-01-19T01:23:16.389Z,95868.81
2023-01-19T01:25:43.720Z,95865.44
2023-01-19T01:28:10.899Z,95865.41
2023-01-19T01:30:41.297Z,95862.22
2023-01-19T01:33:08.962Z,95865.78
2023-01-19T01:35:36.196Z,95862.97
2023-01-19T01:38:04.044Z,95861.69
2023-01-19T01:40:31.422Z,95850.88
2023-01-19T01:42:58.906Z,95855.22
2023-01-19T01:45:35.386Z,95868.03
2023-01-19T01:48:16.097Z,95874.28
2023-01-19T01:51:22.246Z,95879.06
2023-01-19T01:54:14.816Z,95875.22
2023-01-19T01:56:48.945Z,95871.81
2023-01-19T01:59:40.109Z,95881.53
2023-01-19T02:02:34.715Z,95883.09
2023-01-19T02:05:09.536Z,95885.75
2023-01-19T02:08:26.160Z,95880.59
2023-01-19T02:11:14.164Z,95887.16
2023-01-19T02:13:47.054Z,95894.41
2023-01-19T02:16:16.780Z,95897.03
2023-01-19T02:18:45.436Z,95896.78
2023-01-19T02:21:38.614Z,95904.00
2023-01-19T02:24:10.967Z,95910.34
2023-01-19T02:26:47.012Z,95903.75
2023-01-19T02:29:21.554Z,95910.34
2023-01-19T02:31:48.882Z,95907.88
2023-01-19T02:34:20.160Z,95909.22
2023-01-19T02:36:59.095Z,95911.56
2023-01-19T02:39:38.916Z,95914.91
2023-01-19T02:42:27.433Z,95911.50
2023-01-19T02:44:57.283Z,95913.63
2023-01-19T02:47:25.089Z,95908.75
2023-01-19T02:50:00.843Z,95910.59
2023-01-19T02:52:28.604Z,95909.81
2023-01-19T02:55:32.499Z,95912.16
2023-01-19T02:58:26.733Z,95913.22
2023-01-19T03:01:19.024Z,95906.94
2023-01-19T03:04:17.861Z,95915.47
2023-01-19T03:06:59.796Z,95914.44
2023-01-19T03:09:42.155Z,95911.28
2023-01-19T03:12:24.661Z,95918.63
2023-01-19T03:14:59.231Z,95924.06
2023-01-19T03:17:30.050Z,95929.31
2023-01-19T03:19:57.735Z,95931.22
2023-01-19T03:22:29.578Z,95931.31
2023-01-19T03:25:01.481Z,95937.59
2023-01-19T03:27:40.889Z,95928.22
2023-01-19T03:30:29.025Z,95926.50
2023-01-19T03:33:03.376Z,95922.88
2023-01-19T03:35:34.895Z,95933.16
2023-01-19T03:38:08.723Z,95932.06
2023-01-19T03:40:36.871Z,95922.97
2023-01-19T03:43:05.362Z,95928.97
2023-01-19T03:45:36.890Z,95936.56
2023-01-19T03:48:06.140Z,95941.53
2023-01-19T03:50:33.473Z,95951.41
2023-01-19T03:53:13.117Z,95950.34
2023-01-19T03:55:45.610Z,95940.63
2023-01-19T03:58:13.096Z,95936.97
2023-01-19T04:00:40.832Z,95934.47
2023-01-19T04:03:15.537Z,95947.03
2023-01-19T04:05:43.453Z,95945.78
2023-01-19T04:08:12.021Z,95949.31
2023-01-19T04:10:39.317Z,95952.19
2023-01-19T04:13:06.763Z,95955.69
2023-01-19T04:15:34.167Z,95958.56
2023-01-19T04:18:01.790Z,95963.31
2023-01-19T04:20:29.447Z,95965.47
2023-01-19T04:23:00.732Z,95960.78
2023-01-19T04:25:29.374Z,95965.97
2023-01-19T04:27:59.780Z,95969.19
2023-01-19T04:30:27.913Z,95963.16
2023-01-19T04:32:56.337Z,95978.09
2023-01-19T04:35:23.797Z,95977.78
2023-01-19T04:37:54.203Z,95974.28
2023-01-19T04:40:21.359Z,95973.06
2023-01-19T04:42:48.651Z,95969.94
2023-01-19T04:45:15.994Z,95979.28
2023-01-19T04:47:43.275Z,95979.31
2023-01-19T04:50:12.073Z,95977.41
2023-01-19T04:52:40.235Z,95990.94
2023-01-19T04:55:08.801Z,95983.88
2023-01-19T04:57:36.154Z,95987.81
2023-01-19T05:00:07.573Z,95991.84
2023-01-19T05:02:35.825Z,95987.56
2023-01-19T05:05:04.745Z,95985.63
2023-01-19T05:07:31.983Z,95974.06
2023-01-19T05:09:59.143Z,95972.69
2023-01-19T05:12:26.458Z,95971.34
2023-01-19T05:14:54.020Z,95958.06
2023-01-19T05:17:21.153Z,95953.28
2023-01-19T05:19:49.007Z,95959.56
2023-01-19T05:22:16.636Z,95951.63
2023-01-19T05:24:43.891Z,95955.78
2023-01-19T05:27:13.742Z,95955.31
2023-01-19T05:29:43.227Z,95948.94
2023-01-19T05:32:10.435Z,95955.47
2023-01-19T05:34:37.670Z,95954.00
2023-01-19T05:37:07.347Z,95950.31
2023-01-19T05:39:37.579Z,95953.53
2023-01-19T05:42:04.963Z,95950.63
2023-01-19T05:44:32.097Z,95964.00
2023-01-19T05:46:59.392Z,95967.69
2023-01-19T05:49:26.719Z,95957.25
2023-01-19T05:51:53.993Z,95947.22
2023-01-19T05:54:21.441Z,95964.50
2023-01-19T05:56:48.704Z,95964.06
2023-01-19T05:59:23.998Z,95964.47
2023-01-19T06:01:53.192Z,95956.03
2023-01-19T06:04:21.504Z,95970.31
2023-01-19T06:06:50.272Z,95968.19
2023-01-19T06:09:18.267Z,95971.13
2023-01-19T06:11:47.015Z,95972.47
2023-01-19T06:14:14.284Z,95971.50
2023-01-19T06:16:41.671Z,95966.22
2023-01-19T06:19:09.450Z,95974.66
2023-01-19T06:21:36.631Z,95976.00
2023-01-19T06:24:04.214Z,95973.00
2023-01-19T06:26:31.430Z,95987.41
2023-01-19T06:28:58.635Z,95991.28
2023-01-19T06:31:28.849Z,95997.47
2023-01-19T06:33:56.153Z,96008.34
2023-01-19T06:36:23.505Z,96007.94
2023-01-19T06:38:50.695Z,96015.69
2023-01-19T06:41:17.930Z,96016.16
2023-01-19T06:43:45.083Z,96018.00
2023-01-19T06:46:13.508Z,96026.00
2023-01-19T06:48:40.814Z,96036.28
2023-01-19T06:51:08.157Z,96036.91
2023-01-19T06:53:35.431Z,96054.44
2023-01-19T06:56:04.331Z,96055.84
2023-01-19T06:58:32.374Z,96059.25
2023-01-19T07:01:04.955Z,96067.75
2023-01-19T07:03:33.234Z,96073.78
2023-01-19T07:06:02.544Z,96088.28
2023-01-19T07:08:30.572Z,96096.88
2023-01-19T07:11:26.649Z,96097.09
2023-01-19T07:13:57.622Z,96104.97
2023-01-19T07:16:25.146Z,96103.97
2023-01-19T07:18:52.442Z,96094.81
2023-01-19T07:21:19.680Z,96096.66
2023-01-19T07:23:53.775Z,96101.25
2023-01-19T07:26:22.194Z,96098.09
2023-01-19T07:28:50.185Z,96094.47
2023-01-19T07:31:18.334Z,96085.78
2023-01-19T07:33:46.069Z,96095.56
2023-01-19T07:36:13.726Z,96124.88
2023-01-19T07:38:40.894Z,96111.78
2023-01-19T07:41:10.398Z,96093.78
2023-01-19T07:43:37.704Z,96106.09
2023-01-19T07:46:07.318Z,96114.22
2023-01-19T07:48:34.766Z,96118.16
2023-01-19T07:51:11.721Z,96116.16
2023-01-19T07:53:40.241Z,96122.56
2023-01-19T07:56:07.954Z,96119.72
2023-01-19T07:58:35.166Z,96132.97
2023-01-19T08:01:10.957Z,96131.78
2023-01-19T08:03:39.044Z,96137.13
2023-01-19T08:06:07.097Z,96143.84
2023-01-19T08:08:34.879Z,96138.84
2023-01-19T08:11:09.681Z,96137.25
2023-01-19T08:13:36.919Z,96125.19
2023-01-19T08:16:05.084Z,96125.69
2023-01-19T08:18:32.396Z,96126.03
2023-01-19T08:21:00.349Z,96119.53
2023-01-19T08:23:28.187Z,96130.59
2023-01-19T08:25:55.484Z,96139.38
2023-01-19T08:28:22.803Z,96123.19
2023-01-19T08:30:56.290Z,96117.16
2023-01-19T08:33:25.375Z,96123.53
2023-01-19T08:35:54.418Z,96132.97
2023-01-19T08:38:21.715Z,96153.59
2023-01-19T08:40:49.366Z,96151.38
2023-01-19T08:43:17.856Z,96162.03
2023-01-19T08:45:51.620Z,96160.69
2023-01-19T08:48:22.443Z,96150.94
2023-01-19T08:50:50.420Z,96155.59
2023-01-19T08:53:19.220Z,96165.56
2023-01-19T08:55:47.007Z,96180.13
2023-01-19T08:58:14.164Z,96179.78
2023-01-19T09:00:41.946Z,96189.00
2023-01-19T09:03:12.800Z,96175.06
2023-01-19T09:05:40.921Z,96172.84
2023-01-19T09:08:13.040Z,96163.16
2023-01-19T09:10:50.041Z,96159.44
2023-01-19T09:13:19.024Z,96163.06
2023-01-19T09:15:46.998Z,96181.38
2023-01-19T09:18:18.920Z,96183.91
2023-01-19T09:20:48.576Z,96191.16
2023-01-19T09:23:19.557Z,96177.69
2023-01-19T09:25:48.454Z,96176.34
2023-01-19T09:28:17.771Z,96173.28
2023-01-19T09:30:45.612Z,96170.25
2023-01-19T09:33:16.942Z,96164.03
2023-01-19T09:35:47.075Z,96152.41
2023-01-19T09:38:20.442Z,96156.50
2023-01-19T09:40:55.281Z,96156.59
2023-01-19T09:43:47.525Z,96156.03
2023-01-19T09:46:22.896Z,96165.13
2023-01-19T09:48:59.878Z,96173.78
2023-01-19T09:51:33.935Z,96173.03
2023-01-19T09:54:04.311Z,96178.38
2023-01-19T09:56:32.985Z,96175.41
2023-01-19T09:59:01.467Z,96174.91
2023-01-19T10:01:36.762Z,96173.25
2023-01-19T10:04:42.503Z,96164.72
2023-01-19T10:07:32.953Z,96160.84
2023-01-19T10:10:33.371Z,96158.50
2023-01-19T10:13:34.459Z,96157.56
2023-01-19T10:16:45.813Z,96144.09
2023-01-19T10:19:38.192Z,96143.81
2023-01-19T10:22:34.243Z,96135.16
2023-01-19T10:25:07.868Z,96135.00
2023-01-19T10:27:38.088Z,96125.53
2023-01-19T10:30:10.292Z,96127.03
2023-01-19T10:32:39.515Z,96133.91
2023-01-19T10:35:26.131Z,96131.84
2023-01-19T10:38:01.735Z,96137.47
2023-01-19T10:40:51.887Z,96135.16
2023-01-19T10:43:34.584Z,96135.16
2023-01-19T10:46:29.056Z,96132.88
2023-01-19T10:48:56.714Z,96136.59
2023-01-19T10:51:24.135Z,96127.81
2023-01-19T10:54:03.515Z,96126.53
2023-01-19T10:56:37.213Z,96128.28
2023-01-19T10:59:06.969Z,96143.97
2023-01-19T11:01:38.222Z,96137.28
2023-01-19T11:04:29.445Z,96141.44
2023-01-19T11:07:18.830Z,96146.44
2023-01-19T11:09:47.657Z,96142.94
2023-01-19T11:12:24.481Z,96146.13
2023-01-19T11:14:52.416Z,96142.16
2023-01-19T11:17:25.346Z,96136.88
2023-01-19T11:20:01.705Z,96124.66
2023-01-19T11:22:33.192Z,96118.34
2023-01-19T11:25:05.089Z,96129.38
2023-01-19T11:27:36.341Z,96134.13
2023-01-19T11:30:21.561Z,96129.06
2023-01-19T11:32:49.467Z,96129.50
2023-01-19T11:35:39.777Z,96135.78
2023-01-19T11:38:13.160Z,96132.22
2023-01-19T11:40:42.019Z,96133.59
2023-01-19T11:43:14.057Z,96134.13
2023-01-19T11:45:41.635Z,96144.16
2023-01-19T11:48:43.148Z,96137.81
2023-01-19T11:51:20.037Z,96120.16
2023-01-19T11:53:52.830Z,96131.38
2023-01-19T11:56:26.373Z,96131.50
2023-01-19T11:58:53.815Z,96128.44
2023-01-19T12:01:33.210Z,96128.25
2023-01-19T12:04:21.861Z,96133.41
2023-01-19T12:06:54.501Z,96128.50
2023-01-19T12:09:34.169Z,96126.34
2023-01-19T12:12:17.210Z,96116.81
2023-01-19T12:15:06.903Z,96120.97
2023-01-19T12:17:45.548Z,96126.94
2023-01-19T12:20:44.687Z,96125.09
2023-01-19T12:23:12.016Z,96132.06
2023-01-19T12:26:03.203Z,96126.31
2023-01-19T12:28:39.274Z,96133.91
2023-01-19T12:31:08.090Z,96134.31
2023-01-19T12:33:39.713Z,96144.22
2023-01-19T12:36:38.769Z,96150.75
2023-01-19T12:39:16.935Z,96146.09
2023-01-19T12:41:46.068Z,96149.09
2023-01-19T12:44:16.531Z,96152.72
2023-01-19T12:46:49.256Z,96154.06
2023-01-19T12:49:26.432Z,96154.59
2023-01-19T12:52:30.752Z,96155.94
2023-01-19T12:55:13.269Z,96149.63
2023-01-19T12:58:03.963Z,96148.38
2023-01-19T13:00:47.159Z,96162.09
2023-01-19T13:03:20.475Z,96165.25
2023-01-19T13:05:55.497Z,96168.66
2023-01-19T13:08:59.171Z,96164.56
2023-01-19T13:11:29.380Z,96167.00
2023-01-19T13:13:58.555Z,96164.88
2023-01-19T13:16:28.904Z,96162.56
2023-01-19T13:19:07.902Z,96172.16
2023-01-19T13:21:44.702Z,96182.56
2023-01-19T13:24:22.819Z,96175.78
2023-01-19T13:26:49.988Z,96196.03
2023-01-19T13:29:43.023Z,96195.97
2023-01-19T13:32:18.884Z,96197.06
2023-01-19T13:34:54.682Z,96196.66
2023-01-19T13:37:32.871Z,96194.16
2023-01-19T13:40:01.132Z,96202.84
2023-01-19T13:42:37.642Z,96204.41
2023-01-19T13:45:27.876Z,96202.56
2023-01-19T13:47:58.533Z,96205.75
2023-01-19T13:50:32.985Z,96210.41
2023-01-19T13:53:14.437Z,96211.53
2023-01-19T13:56:05.365Z,96210.28
2023-01-19T13:58:32.556Z,96205.31
2023-01-19T14:00:59.924Z,96215.72
2023-01-19T14:03:27.404Z,96208.38
2023-01-19T14:05:55.690Z,96213.19
2023-01-19T14:08:25.678Z,96218.72
2023-01-19T14:10:56.452Z,96226.97
2023-01-19T14:13:26.288Z,96224.28
2023-01-19T14:16:18.608Z,96228.59
2023-01-19T14:18:46.115Z,96228.00
2023-01-19T14:21:15.963Z,96225.34
2023-01-19T14:24:05.613Z,96226.34
2023-01-19T14:26:48.983Z,96230.75
2023-01-19T14:29:27.950Z,96222.41
2023-01-19T14:32:05.671Z,96226.97
2023-01-19T14:35:04.216Z,96227.13
2023-01-19T14:37:37.654Z,96226.53
2023-01-19T14:40:21.657Z,96226.75
2023-01-19T14:43:00.422Z,96220.34
2023-01-19T14:45:35.427Z,96215.94
2023-01-19T14:48:19.353Z,96233.06
2023-01-19T14:51:02.388Z,96243.34
2023-01-19T14:53:37.345Z,96250.75
2023-01-19T14:56:06.870Z,96249.63
2023-01-19T14:58:35.987Z,96245.00
2023-01-19T15:01:04.755Z,96249.28
2023-01-19T15:03:43.967Z,96249.03
2023-01-19T15:06:19.495Z,96248.41
2023-01-19T15:08:48.880Z,96244.56
2023-01-19T15:11:23.601Z,96246.66
2023-01-19T15:13:51.819Z,96243.88
2023-01-19T15:16:20.053Z,96244.75
2023-01-19T15:18:47.414Z,96248.31
2023-01-19T15:21:19.621Z,96245.94
2023-01-19T15:23:47.697Z,96240.53
2023-01-19T15:26:20.886Z,96247.38
2023-01-19T15:28:49.451Z,96247.53
2023-01-19T15:31:22.974Z,96246.19
2023-01-19T15:33:50.578Z,96251.69
2023-01-19T15:36:21.012Z,96256.41
2023-01-19T15:38:51.065Z,96261.22
2023-01-19T15:41:28.050Z,96263.19
2023-01-19T15:43:55.519Z,96264.88
2023-01-19T15:46:27.600Z,96268.25
2023-01-19T15:48:55.086Z,96271.63
2023-01-19T15:51:27.894Z,96269.97
2023-01-19T15:53:56.157Z,96265.56
2023-01-19T15:56:29.456Z,96269.28
2023-01-19T15:58:58.707Z,96275.91
2023-01-19T16:01:32.891Z,96281.34
2023-01-19T16:04:04.058Z,96279.19
2023-01-19T16:06:32.513Z,96285.47
2023-01-19T16:09:01.354Z,96283.13
2023-01-19T16:11:33.778Z,96286.41
2023-01-19T16:14:01.708Z,96280.59
2023-01-19T16:16:29.498Z,96290.13
2023-01-19T16:18:57.583Z,96293.50
2023-01-19T16:21:25.284Z,96296.28
2023-01-19T16:23:52.740Z,96295.94
2023-01-19T16:26:29.202Z,96289.00
2023-01-19T16:29:02.885Z,96300.75
2023-01-19T16:31:30.587Z,96300.25
2023-01-19T16:33:57.793Z,96306.59
2023-01-19T16:36:34.053Z,96313.31
2023-01-19T16:39:13.895Z,96310.59
2023-01-19T16:41:42.425Z,96307.97
2023-01-19T16:44:12.393Z,96311.38
2023-01-19T16:46:43.469Z,96303.25
2023-01-19T16:49:13.311Z,96311.94
2023-01-19T16:51:40.902Z,96316.25
2023-01-19T16:54:12.285Z,96319.25
2023-01-19T16:56:39.595Z,96318.00
2023-01-19T16:59:07.114Z,96319.03
2023-01-19T17:01:34.492Z,96321.16
2023-01-19T17:04:04.888Z,96314.06
2023-01-19T17:06:32.708Z,96315.56
2023-01-19T17:09:00.205Z,96322.47
2023-01-19T17:11:30.240Z,96323.91
2023-01-19T17:14:06.456Z,96327.06
2023-01-19T17:16:35.261Z,96323.84
2023-01-19T17:19:07.254Z,96331.19
2023-01-19T17:21:34.953Z,96326.63
2023-01-19T17:24:02.301Z,96332.59
2023-01-19T17:26:31.167Z,96328.31
2023-01-19T17:29:05.997Z,96320.50
2023-01-19T17:31:34.576Z,96335.78
2023-01-19T17:34:02.623Z,96336.56
2023-01-19T17:36:33.040Z,96336.34
2023-01-19T17:39:06.210Z,96333.06
2023-01-19T17:41:35.425Z,96339.88
2023-01-19T17:44:05.290Z,96349.47
2023-01-19T17:46:36.947Z,96352.16
2023-01-19T17:49:07.783Z,96352.28
2023-01-19T17:51:39.987Z,96351.81
2023-01-19T17:54:07.384Z,96351.09
2023-01-19T17:56:37.684Z,96346.81
2023-01-19T17:59:07.976Z,96341.06
2023-01-19T18:01:40.606Z,96352.47
2023-01-19T18:04:09.527Z,96345.41
2023-01-19T18:06:38.041Z,96350.72
2023-01-19T18:09:07.447Z,96343.84
2023-01-19T18:11:35.541Z,96362.59
2023-01-19T18:14:02.955Z,96364.63
2023-01-19T18:16:32.862Z,96356.47
2023-01-19T18:19:00.226Z,96366.09
2023-01-19T18:21:28.866Z,96362.81
2023-01-19T18:24:02.514Z,96375.63
2023-01-19T18:26:32.145Z,96371.19
2023-01-19T18:29:00.386Z,96382.38
2023-01-19T18:31:28.777Z,96392.56
2023-01-19T18:33:56.695Z,96403.66
2023-01-19T18:36:24.016Z,96395.66
2023-01-19T18:38:51.657Z,96390.13
2023-01-19T18:41:21.117Z,96393.72
2023-01-19T18:43:49.387Z,96395.44
2023-01-19T18:46:17.340Z,96406.50
2023-01-19T18:48:44.879Z,96406.84
2023-01-19T18:51:15.641Z,96413.41
2023-01-19T18:53:43.774Z,96421.19
2023-01-19T18:56:15.884Z,96418.50
2023-01-19T18:58:45.811Z,96412.03
2023-01-19T19:01:31.560Z,96420.66
2023-01-19T19:04:00.007Z,96412.28
2023-01-19T19:06:31.092Z,96424.59
2023-01-19T19:08:59.493Z,96419.72
2023-01-19T19:11:28.222Z,96427.53
2023-01-19T19:14:01.817Z,96429.97
2023-01-19T19:16:29.956Z,96430.09
2023-01-19T19:18:57.337Z,96434.31
2023-01-19T19:21:28.207Z,96432.41
2023-01-19T19:23:56.786Z,96438.84
2023-01-19T19:26:31.373Z,96443.81
2023-01-19T19:28:59.769Z,96436.13
2023-01-19T19:31:30.799Z,96448.69
2023-01-19T19:33:59.724Z,96450.78
2023-01-19T19:36:29.280Z,96446.13
2023-01-19T19:38:58.346Z,96456.47
2023-01-19T19:41:27.699Z,96462.34
2023-01-19T19:44:03.030Z,96463.91
2023-01-19T19:46:30.793Z,96470.72
2023-01-19T19:48:58.378Z,96474.34
2023-01-19T19:51:28.213Z,96484.44
2023-01-19T19:53:59.138Z,96489.50
2023-01-19T19:56:28.615Z,96493.25
2023-01-19T19:58:58.064Z,96488.84
2023-01-19T20:01:33.466Z,96493.47
2023-01-19T20:04:10.788Z,96495.25
2023-01-19T20:06:42.086Z,96496.59
2023-01-19T20:09:12.744Z,96494.78
2023-01-19T20:11:43.443Z,96485.72
2023-01-19T20:14:16.507Z,96493.03
2023-01-19T20:16:44.083Z,96496.47
2023-01-19T20:19:11.655Z,96499.72
2023-01-19T20:21:41.963Z,96498.38
2023-01-19T20:24:18.598Z,96501.84
2023-01-19T20:26:53.082Z,96495.31
2023-01-19T20:29:20.904Z,96499.50
2023-01-19T20:31:51.973Z,96504.13
2023-01-19T20:34:22.111Z,96493.81
2023-01-19T20:36:51.385Z,96498.41
2023-01-19T20:39:20.151Z,96502.66
2023-01-19T20:41:50.876Z,96495.31
2023-01-19T20:44:25.824Z,96502.81
2023-01-19T20:46:54.986Z,96505.78
2023-01-19T20:49:22.719Z,96505.44
2023-01-19T20:51:53.682Z,96506.78
2023-01-19T20:54:27.169Z,96507.00
2023-01-19T20:56:54.542Z,96499.88
2023-01-19T20:59:22.656Z,96504.41
2023-01-19T21:01:50.638Z,96514.13
2023-01-19T21:04:18.823Z,96512.19
2023-01-19T21:06:46.296Z,96517.19
2023-01-19T21:09:13.725Z,96519.31
2023-01-19T21:11:41.117Z,96526.47
2023-01-19T21:14:08.640Z,96538.34
2023-01-19T21:16:36.980Z,96544.97
2023-01-19T21:19:05.257Z,96552.00
2023-01-19T21:21:32.561Z,96551.53
2023-01-19T21:24:01.968Z,96550.28
2023-01-19T21:26:30.338Z,96560.13
2023-01-19T21:28:59.710Z,96565.59
2023-01-19T21:31:28.440Z,96562.03
2023-01-19T21:33:59.326Z,96557.50
2023-01-19T21:36:26.612Z,96554.94
2023-01-19T21:39:00.626Z,96568.28
2023-01-19T21:41:30.228Z,96571.22
2023-01-19T21:43:58.714Z,96566.75
2023-01-19T21:46:29.696Z,96571.09
2023-01-19T21:49:04.006Z,96567.56
2023-01-19T21:51:33.641Z,96562.34
2023-01-19T21:54:07.320Z,96563.84
2023-01-19T21:56:35.650Z,96566.66
2023-01-19T21:59:03.624Z,96560.47
2023-01-19T22:01:34.482Z,96570.66
2023-01-19T22:04:01.931Z,96572.53
2023-01-19T22:06:32.230Z,96573.03
2023-01-19T22:09:00.794Z,96583.22
2023-01-19T22:11:28.869Z,96578.88
2023-01-19T22:13:56.287Z,96577.16
2023-01-19T22:16:24.152Z,96579.88
2023-01-19T22:18:56.338Z,96566.78
2023-01-19T22:21:26.825Z,96568.66
2023-01-19T22:23:59.278Z,96572.00
2023-01-19T22:26:28.909Z,96569.34
2023-01-19T22:28:59.146Z,96572.75
2023-01-19T22:31:29.427Z,96572.00
2023-01-19T22:33:57.339Z,96572.84
2023-01-19T22:36:35.498Z,96570.53
2023-01-19T22:39:09.262Z,96575.97
2023-01-19T22:41:46.116Z,96582.84
2023-01-19T22:44:23.080Z,96582.59
2023-01-19T22:46:54.463Z,96584.69
2023-01-19T22:49:22.085Z,96591.59
2023-01-19T22:51:49.551Z,96599.25
2023-01-19T22:54:16.890Z,96596.63
2023-01-19T22:56:44.170Z,96602.91
2023-01-19T22:59:11.585Z,96600.53
2023-01-19T23:01:42.906Z,96602.91
2023-01-19T23:04:15.854Z,96617.53
2023-01-19T23:06:43.867Z,96623.75
2023-01-19T23:09:14.105Z,96622.69
2023-01-19T23:11:45.287Z,96625.72
2023-01-19T23:14:18.962Z,96628.25
2023-01-19T23:16:47.362Z,96635.66
2023-01-19T23:19:17.135Z,96623.75
2023-01-19T23:21:45.397Z,96626.28
2023-01-19T23:24:13.170Z,96618.00
2023-01-19T23:26:40.457Z,96612.16
2023-01-19T23:29:14.209Z,96609.91
2023-01-19T23:31:46.727Z,96601.81
2023-01-19T23:34:15.423Z,96605.69
2023-01-19T23:37:01.324Z,96599.38
2023-01-19T23:39:28.787Z,96611.09
2023-01-19T23:41:55.932Z,96612.66
2023-01-19T23:44:25.947Z,96610.03
2023-01-19T23:46:57.435Z,96613.13
2023-01-19T23:49:25.483Z,96611.19
2023-01-19T23:51:52.745Z,96605.75
2023-01-19T23:54:20.112Z,96605.88
2023-01-19T23:56:47.371Z,96602.63
2023-01-19T23:59:16.649Z,96605.03
